createdAt,value
2019-05-26T00:02:11.258Z,20.30
2019-05-26T00:04:46.312Z,20.34
2019-05-26T00:07:30.319Z,20.42
2019-05-26T00:09:57.982Z,20.48
2019-05-26T00:12:33.053Z,20.54
2019-05-26T00:15:07.334Z,20.37
2019-05-26T00:17:43.036Z,20.09
2019-05-26T00:20:18.836Z,19.80
2019-05-26T00:22:52.436Z,19.28
2019-05-26T00:25:26.127Z,19.13
2019-05-26T00:28:01.125Z,18.77
2019-05-26T00:30:34.753Z,18.48
2019-05-26T00:33:09.402Z,18.58
2019-05-26T00:35:44.820Z,18.30
2019-05-26T00:38:18.615Z,17.80
2019-05-26T00:40:52.397Z,17.90
2019-05-26T00:43:27.631Z,17.85
2019-05-26T00:46:02.794Z,17.94
2019-05-26T00:48:36.432Z,17.79
2019-05-26T00:51:10.402Z,17.87
2019-05-26T00:53:44.146Z,17.76
2019-05-26T00:56:19.193Z,17.69
2019-05-26T00:58:53.107Z,17.66
2019-05-26T01:01:28.658Z,17.56
2019-05-26T01:04:03.623Z,17.77
2019-05-26T01:06:38.979Z,17.69
2019-05-26T01:09:14.627Z,17.86
2019-05-26T01:11:48.071Z,17.43
2019-05-26T01:14:21.760Z,17.65
2019-05-26T01:16:56.601Z,17.79
2019-05-26T01:19:31.681Z,17.70
2019-05-26T01:22:05.280Z,17.99
2019-05-26T01:24:40.734Z,17.60
2019-05-26T01:27:14.634Z,17.77
2019-05-26T01:29:49.365Z,17.70
2019-05-26T01:32:23.313Z,17.99
2019-05-26T01:34:56.960Z,17.72
2019-05-26T01:37:32.335Z,17.64
2019-05-26T01:40:08.179Z,17.58
2019-05-26T01:42:43.442Z,17.67
2019-05-26T01:45:16.926Z,18.03
2019-05-26T01:47:50.886Z,17.92
2019-05-26T01:50:24.568Z,17.80
2019-05-26T01:52:58.226Z,17.60
2019-05-26T01:55:33.448Z,17.43
2019-05-26T01:58:07.743Z,17.80
2019-05-26T02:00:41.375Z,17.90
2019-05-26T02:03:16.651Z,17.76
2019-05-26T02:05:51.727Z,17.70
2019-05-26T02:08:38.752Z,17.71
2019-05-26T02:11:01.816Z,17.64
2019-05-26T02:13:52.326Z,17.60
2019-05-26T02:19:03.289Z,17.77
2019-05-26T02:21:38.725Z,17.61
2019-05-26T02:24:33.931Z,17.81
2019-05-26T02:27:09.268Z,17.98
2019-05-26T02:29:44.229Z,18.13
2019-05-26T02:32:18.205Z,18.29
2019-05-26T02:34:52.041Z,18.26
2019-05-26T02:37:25.540Z,18.33
2019-05-26T02:40:00.599Z,17.92
2019-05-26T02:42:35.748Z,17.76
2019-05-26T02:45:17.491Z,18.03
2019-05-26T02:47:51.154Z,18.16
2019-05-26T02:50:26.705Z,17.86
2019-05-26T02:53:00.744Z,17.89
2019-05-26T02:55:34.564Z,17.82
2019-05-26T02:58:10.269Z,17.91
2019-05-26T03:00:49.348Z,18.09
2019-05-26T03:03:23.100Z,17.87
2019-05-26T03:05:59.459Z,18.03
2019-05-26T03:08:34.784Z,18.20
2019-05-26T03:11:10.045Z,18.31
2019-05-26T03:13:46.971Z,18.40
2019-05-26T03:16:24.306Z,18.57
2019-05-26T03:19:00.626Z,18.44
2019-05-26T03:21:36.281Z,18.06
2019-05-26T03:24:12.373Z,18.32
2019-05-26T03:26:46.150Z,18.34
2019-05-26T03:29:19.609Z,18.39
2019-05-26T03:31:53.408Z,18.46
2019-05-26T03:34:27.240Z,18.76
2019-05-26T03:37:03.007Z,18.70
2019-05-26T03:39:44.762Z,18.73
2019-05-26T03:42:11.633Z,18.81
2019-05-26T03:44:47.294Z,19.11
2019-05-26T03:47:22.500Z,19.20
2019-05-26T03:49:57.508Z,19.06
2019-05-26T03:52:31.174Z,19.05
2019-05-26T03:55:05.150Z,18.99
2019-05-26T03:57:38.708Z,19.05
2019-05-26T04:00:13.069Z,19.07
2019-05-26T04:02:46.673Z,19.17
2019-05-26T04:05:21.633Z,19.09
2019-05-26T04:07:55.202Z,19.12
2019-05-26T04:10:30.940Z,18.98
2019-05-26T04:13:04.729Z,18.93
2019-05-26T04:15:38.388Z,18.86
2019-05-26T04:18:13.501Z,18.82
2019-05-26T04:20:48.085Z,18.89
2019-05-26T04:23:23.320Z,18.85
2019-05-26T04:25:58.511Z,18.86
2019-05-26T04:28:33.615Z,19.07
2019-05-26T04:31:07.455Z,19.10
2019-05-26T04:33:42.308Z,18.95
2019-05-26T04:36:16.190Z,18.75
2019-05-26T04:38:50.025Z,18.49
2019-05-26T04:41:23.795Z,18.50
2019-05-26T04:43:57.804Z,18.40
2019-05-26T04:46:31.199Z,18.76
2019-05-26T04:49:05.068Z,18.65
2019-05-26T04:51:38.711Z,18.74
2019-05-26T04:54:13.766Z,18.86
2019-05-26T04:56:47.571Z,18.69
2019-05-26T04:59:22.789Z,18.57
2019-05-26T05:01:57.630Z,18.52
2019-05-26T05:04:31.476Z,18.63
2019-05-26T05:07:06.760Z,18.80
2019-05-26T05:09:40.239Z,18.62
2019-05-26T05:12:13.981Z,18.48
2019-05-26T05:14:48.902Z,18.34
2019-05-26T05:17:22.646Z,18.26
2019-05-26T05:19:56.229Z,18.21
2019-05-26T05:22:31.544Z,18.14
2019-05-26T05:25:14.167Z,18.21
2019-05-26T05:27:42.785Z,18.29
2019-05-26T05:30:16.580Z,18.53
2019-05-26T05:32:52.266Z,18.47
2019-05-26T05:35:27.420Z,18.63
2019-05-26T05:38:01.250Z,18.54
2019-05-26T05:40:35.312Z,18.20
2019-05-26T05:43:10.686Z,18.34
2019-05-26T05:45:46.511Z,18.35
2019-05-26T05:48:19.988Z,18.19
2019-05-26T05:50:53.702Z,18.43
2019-05-26T05:53:34.753Z,18.20
2019-05-26T05:56:10.698Z,18.19
2019-05-26T05:58:45.889Z,18.10
2019-05-26T06:01:21.566Z,18.18
2019-05-26T06:03:56.690Z,18.02
2019-05-26T06:06:30.697Z,18.13
2019-05-26T06:09:08.209Z,18.20
2019-05-26T06:14:19.914Z,18.13
2019-05-26T06:16:55.041Z,17.98
2019-05-26T06:19:28.590Z,18.15
2019-05-26T06:22:03.675Z,18.07
2019-05-26T06:24:38.945Z,18.09
2019-05-26T06:27:12.508Z,18.18
2019-05-26T06:29:58.406Z,18.00
2019-05-26T06:32:21.298Z,18.01
2019-05-26T06:34:56.780Z,17.89
2019-05-26T06:37:30.530Z,17.85
2019-05-26T06:40:04.107Z,17.86
2019-05-26T06:42:37.808Z,17.89
2019-05-26T06:45:11.929Z,17.61
2019-05-26T06:47:45.328Z,17.57
2019-05-26T06:50:20.557Z,17.47
2019-05-26T06:52:56.029Z,17.39
2019-05-26T06:55:29.642Z,17.22
2019-05-26T06:58:03.389Z,17.07
2019-05-26T07:00:37.616Z,17.06
2019-05-26T07:03:13.289Z,17.11
2019-05-26T07:05:47.049Z,17.16
2019-05-26T07:08:22.105Z,17.04
2019-05-26T07:10:55.884Z,17.16
2019-05-26T07:13:29.800Z,17.08
2019-05-26T07:16:03.950Z,17.16
2019-05-26T07:18:37.442Z,17.01
2019-05-26T07:21:11.005Z,17.01
2019-05-26T07:23:44.454Z,16.90
2019-05-26T07:26:18.152Z,16.77
2019-05-26T07:28:53.019Z,16.69
2019-05-26T07:31:29.106Z,16.67
2019-05-26T07:34:04.494Z,16.78
2019-05-26T07:36:38.486Z,16.62
2019-05-26T07:39:12.570Z,16.50
2019-05-26T07:41:47.628Z,16.54
2019-05-26T07:44:21.408Z,16.66
2019-05-26T07:46:54.951Z,16.75
2019-05-26T07:49:30.023Z,16.63
2019-05-26T07:52:03.854Z,16.52
2019-05-26T07:54:39.033Z,16.59
2019-05-26T07:57:14.367Z,16.52
2019-05-26T07:59:49.505Z,16.51
2019-05-26T08:02:23.482Z,16.53
2019-05-26T08:05:00.208Z,16.53
2019-05-26T08:07:33.959Z,16.43
2019-05-26T08:10:10.116Z,16.51
2019-05-26T08:12:45.380Z,16.25
2019-05-26T08:15:20.572Z,16.22
2019-05-26T08:17:57.431Z,16.39
2019-05-26T08:20:31.496Z,16.34
2019-05-26T08:23:09.715Z,16.42
2019-05-26T08:25:44.847Z,16.32
2019-05-26T08:28:20.035Z,16.07
2019-05-26T08:30:55.359Z,15.97
2019-05-26T08:33:29.471Z,16.18
2019-05-26T08:36:03.113Z,16.29
2019-05-26T08:38:38.507Z,15.99
2019-05-26T08:41:14.958Z,16.13
2019-05-26T08:43:48.915Z,16.14
2019-05-26T08:46:22.569Z,16.09
2019-05-26T08:48:56.329Z,15.91
2019-05-26T08:51:30.271Z,15.94
2019-05-26T08:54:05.328Z,16.10
2019-05-26T08:56:40.595Z,16.01
2019-05-26T08:59:15.704Z,15.84
2019-05-26T09:01:50.940Z,15.77
2019-05-26T09:04:24.658Z,15.78
2019-05-26T09:06:58.306Z,15.81
2019-05-26T09:09:33.982Z,16.00
2019-05-26T09:12:07.684Z,15.66
2019-05-26T09:14:41.438Z,15.62
2019-05-26T09:17:17.037Z,15.78
2019-05-26T09:19:50.822Z,15.87
2019-05-26T09:22:25.034Z,15.65
2019-05-26T09:24:59.239Z,15.85
2019-05-26T09:27:34.574Z,15.78
2019-05-26T09:30:09.780Z,15.73
2019-05-26T09:32:43.537Z,15.56
2019-05-26T09:35:20.000Z,15.74
2019-05-26T09:37:53.770Z,15.89
2019-05-26T09:40:29.315Z,15.88
2019-05-26T09:43:15.705Z,15.74
2019-05-26T09:45:39.367Z,15.57
2019-05-26T09:48:13.831Z,15.47
2019-05-26T09:50:49.151Z,15.48
2019-05-26T09:53:24.234Z,15.54
2019-05-26T09:55:58.005Z,15.62
2019-05-26T09:58:31.896Z,15.38
2019-05-26T10:01:05.747Z,15.43
2019-05-26T10:03:39.613Z,15.33
2019-05-26T10:06:13.412Z,15.34
2019-05-26T10:08:47.379Z,15.40
2019-05-26T10:11:20.960Z,15.14
2019-05-26T10:13:54.741Z,14.88
2019-05-26T10:16:28.739Z,15.02
2019-05-26T10:19:02.437Z,15.17
2019-05-26T10:21:36.164Z,15.19
2019-05-26T10:24:12.919Z,15.06
2019-05-26T10:26:45.165Z,14.98
2019-05-26T10:29:19.274Z,15.10
2019-05-26T10:31:53.003Z,15.00
2019-05-26T10:34:28.488Z,15.00
2019-05-26T10:37:02.227Z,14.97
2019-05-26T10:39:38.594Z,15.02
2019-05-26T10:42:13.531Z,15.18
2019-05-26T10:44:46.990Z,14.92
2019-05-26T10:47:20.769Z,14.94
2019-05-26T10:49:56.746Z,14.89
2019-05-26T10:52:31.763Z,14.75
2019-05-26T10:55:06.865Z,14.73
2019-05-26T10:57:40.817Z,14.68
2019-05-26T11:00:14.775Z,14.77
2019-05-26T11:02:48.335Z,14.88
2019-05-26T11:05:22.327Z,14.66
2019-05-26T11:07:57.471Z,14.76
2019-05-26T11:10:31.248Z,14.44
2019-05-26T11:13:06.742Z,14.41
2019-05-26T11:15:40.636Z,14.59
2019-05-26T11:18:34.170Z,14.33
2019-05-26T11:21:08.199Z,14.31
2019-05-26T11:23:42.173Z,14.28
2019-05-26T11:26:15.621Z,14.19
2019-05-26T11:28:49.594Z,14.09
2019-05-26T11:31:23.909Z,14.05
2019-05-26T11:33:57.601Z,14.09
2019-05-26T11:36:32.608Z,14.28
2019-05-26T11:39:09.341Z,14.17
2019-05-26T11:41:54.661Z,14.05
2019-05-26T11:44:28.035Z,14.21
2019-05-26T11:47:01.040Z,14.19
2019-05-26T11:49:34.725Z,14.14
2019-05-26T11:52:10.106Z,14.16
2019-05-26T11:54:43.895Z,14.14
2019-05-26T11:57:18.080Z,14.18
2019-05-26T11:59:53.151Z,14.08
2019-05-26T12:02:27.483Z,14.18
2019-05-26T12:05:01.511Z,14.32
2019-05-26T12:07:39.485Z,14.39
2019-05-26T12:10:14.757Z,14.41
2019-05-26T12:12:48.655Z,14.39
2019-05-26T12:15:22.516Z,14.23
2019-05-26T12:17:56.382Z,14.00
2019-05-26T12:20:30.604Z,14.10
2019-05-26T12:23:06.855Z,14.24
2019-05-26T12:25:40.489Z,14.01
2019-05-26T12:28:14.484Z,13.91
2019-05-26T12:30:50.021Z,14.06
2019-05-26T12:33:23.861Z,14.14
2019-05-26T12:35:57.742Z,13.94
2019-05-26T12:38:31.615Z,13.87
2019-05-26T12:41:06.517Z,13.93
2019-05-26T12:43:40.386Z,13.97
2019-05-26T12:46:14.435Z,13.90
2019-05-26T12:48:49.879Z,13.64
2019-05-26T12:51:25.536Z,13.55
2019-05-26T12:54:01.037Z,13.44
2019-05-26T12:56:35.110Z,13.41
2019-05-26T12:59:09.152Z,13.40
2019-05-26T13:01:42.938Z,13.38
2019-05-26T13:04:16.556Z,13.47
2019-05-26T13:06:50.792Z,13.24
2019-05-26T13:09:25.493Z,13.33
2019-05-26T13:11:59.370Z,13.32
2019-05-26T13:14:32.948Z,13.37
2019-05-26T13:17:07.465Z,13.35
2019-05-26T13:19:43.067Z,13.37
2019-05-26T13:22:16.528Z,13.56
2019-05-26T13:24:52.597Z,13.19
2019-05-26T13:27:26.650Z,13.32
2019-05-26T13:30:02.988Z,13.38
2019-05-26T13:32:37.111Z,13.47
2019-05-26T13:35:13.121Z,13.43
2019-05-26T13:37:46.774Z,13.41
2019-05-26T13:40:22.596Z,13.42
2019-05-26T13:42:58.087Z,13.46
2019-05-26T13:45:33.892Z,13.39
2019-05-26T13:48:08.467Z,13.25
2019-05-26T13:50:43.714Z,13.18
2019-05-26T13:53:17.505Z,13.21
2019-05-26T13:55:51.368Z,13.19
2019-05-26T13:58:27.540Z,13.18
2019-05-26T14:01:01.402Z,13.25
2019-05-26T14:03:35.274Z,13.17
2019-05-26T14:06:10.805Z,13.16
2019-05-26T14:08:46.253Z,13.24
2019-05-26T14:11:20.097Z,13.13
2019-05-26T14:13:53.913Z,13.05
2019-05-26T14:16:31.642Z,13.06
2019-05-26T14:19:06.887Z,13.10
2019-05-26T14:21:41.866Z,13.19
2019-05-26T14:24:15.739Z,13.29
2019-05-26T14:26:49.535Z,13.16
2019-05-26T14:29:23.077Z,13.08
2019-05-26T14:31:57.450Z,13.15
2019-05-26T14:34:32.405Z,13.07
2019-05-26T14:37:05.986Z,12.93
2019-05-26T14:39:41.060Z,12.76
2019-05-26T14:42:15.737Z,12.79
2019-05-26T14:44:52.011Z,12.96
2019-05-26T14:47:25.899Z,12.81
2019-05-26T14:50:01.279Z,12.66
2019-05-26T14:52:35.024Z,12.63
2019-05-26T14:55:11.111Z,12.65
2019-05-26T14:57:45.202Z,12.64
2019-05-26T15:00:21.422Z,12.56
2019-05-26T15:02:56.450Z,12.56
2019-05-26T15:05:30.565Z,12.66
2019-05-26T15:08:04.170Z,12.58
2019-05-26T15:10:37.873Z,12.41
2019-05-26T15:13:11.845Z,12.33
2019-05-26T15:15:46.833Z,12.53
2019-05-26T15:18:21.999Z,12.44
2019-05-26T15:20:57.135Z,12.23
2019-05-26T15:23:32.125Z,12.27
2019-05-26T15:26:05.839Z,12.18
2019-05-26T15:28:39.489Z,12.18
2019-05-26T15:31:14.298Z,12.32
2019-05-26T15:33:48.491Z,12.18
2019-05-26T15:36:22.214Z,12.21
2019-05-26T15:38:57.084Z,12.28
2019-05-26T15:41:31.890Z,12.24
2019-05-26T15:44:07.516Z,12.35
2019-05-26T15:46:43.134Z,12.41
2019-05-26T15:49:18.174Z,12.30
2019-05-26T15:51:52.065Z,12.26
2019-05-26T15:54:26.106Z,12.15
2019-05-26T15:57:01.293Z,12.18
2019-05-26T15:59:36.506Z,12.39
2019-05-26T16:02:10.622Z,12.39
2019-05-26T16:04:45.860Z,12.17
2019-05-26T16:07:20.806Z,12.04
2019-05-26T16:09:54.747Z,11.93
2019-05-26T16:12:28.392Z,11.89
2019-05-26T16:15:01.878Z,12.03
2019-05-26T16:17:38.550Z,11.92
2019-05-26T16:20:13.413Z,11.89
2019-05-26T16:22:48.595Z,11.88
2019-05-26T16:25:22.627Z,11.71
2019-05-26T16:27:56.543Z,11.82
2019-05-26T16:30:31.694Z,11.68
2019-05-26T16:33:05.304Z,11.61
2019-05-26T16:35:40.503Z,11.67
2019-05-26T16:38:15.757Z,11.68
2019-05-26T16:40:51.140Z,11.66
2019-05-26T16:43:24.938Z,11.62
2019-05-26T16:45:59.852Z,11.59
2019-05-26T16:48:34.785Z,11.52
2019-05-26T16:51:10.435Z,11.45
2019-05-26T16:53:45.757Z,11.62
2019-05-26T16:56:21.556Z,11.36
2019-05-26T16:58:56.459Z,11.29
2019-05-26T17:01:32.113Z,11.28
2019-05-26T17:04:05.893Z,11.34
2019-05-26T17:06:41.464Z,11.41
2019-05-26T17:09:15.239Z,11.40
2019-05-26T17:11:50.565Z,11.31
2019-05-26T17:14:26.080Z,11.27
2019-05-26T17:17:13.571Z,11.35
2019-05-26T17:19:35.006Z,11.45
2019-05-26T17:22:10.589Z,11.25
2019-05-26T17:24:44.196Z,11.19
2019-05-26T17:27:19.710Z,11.24
2019-05-26T17:29:53.642Z,11.27
2019-05-26T17:32:27.594Z,11.29
2019-05-26T17:35:01.247Z,11.26
2019-05-26T17:37:36.326Z,11.13
2019-05-26T17:40:10.345Z,11.31
2019-05-26T17:42:44.344Z,11.16
2019-05-26T17:45:19.734Z,11.21
2019-05-26T17:47:53.324Z,11.22
2019-05-26T17:50:27.116Z,11.18
2019-05-26T17:53:02.050Z,11.18
2019-05-26T17:55:37.178Z,11.26
2019-05-26T17:58:12.735Z,11.10
2019-05-26T18:00:46.566Z,11.06
2019-05-26T18:03:22.022Z,11.06
2019-05-26T18:05:57.596Z,11.20
2019-05-26T18:08:36.244Z,11.22
2019-05-26T18:11:09.698Z,11.20
2019-05-26T18:14:02.885Z,11.15
2019-05-26T18:16:39.307Z,11.21
2019-05-26T18:19:14.420Z,11.27
2019-05-26T18:21:47.950Z,11.18
2019-05-26T18:24:23.237Z,11.25
2019-05-26T18:26:58.262Z,11.05
2019-05-26T18:29:31.857Z,10.96
2019-05-26T18:32:05.443Z,10.97
2019-05-26T18:34:40.529Z,11.04
2019-05-26T18:37:16.083Z,10.92
2019-05-26T18:39:51.339Z,10.84
2019-05-26T18:42:25.053Z,10.86
2019-05-26T18:44:59.819Z,10.94
2019-05-26T18:47:34.976Z,10.90
2019-05-26T18:50:10.662Z,10.94
2019-05-26T18:52:45.576Z,10.86
2019-05-26T18:55:19.436Z,10.95
2019-05-26T18:57:54.649Z,10.90
2019-05-26T19:00:30.868Z,10.75
2019-05-26T19:03:04.690Z,10.79
2019-05-26T19:05:39.606Z,10.69
2019-05-26T19:08:14.376Z,10.73
2019-05-26T19:10:47.948Z,10.77
2019-05-26T19:13:22.651Z,10.71
2019-05-26T19:15:56.055Z,10.75
2019-05-26T19:18:29.523Z,10.63
2019-05-26T19:21:03.037Z,10.62
2019-05-26T19:23:37.668Z,10.64
2019-05-26T19:26:12.811Z,10.56
2019-05-26T19:28:48.176Z,10.65
2019-05-26T19:31:23.225Z,10.57
2019-05-26T19:33:58.237Z,10.62
2019-05-26T19:36:33.693Z,10.41
2019-05-26T19:39:09.881Z,10.49
2019-05-26T19:41:44.696Z,10.44
2019-05-26T19:44:18.240Z,10.35
2019-05-26T19:46:52.983Z,10.36
2019-05-26T19:49:27.580Z,10.42
2019-05-26T19:52:02.596Z,10.61
2019-05-26T19:54:37.754Z,10.56
2019-05-26T19:57:13.174Z,10.52
2019-05-26T19:59:48.161Z,10.40
2019-05-26T20:02:42.518Z,10.43
2019-05-26T20:05:17.982Z,10.47
2019-05-26T20:07:52.832Z,10.53
2019-05-26T20:10:27.783Z,10.68
2019-05-26T20:13:02.830Z,10.61
2019-05-26T20:15:37.743Z,10.53
2019-05-26T20:18:11.345Z,10.48
2019-05-26T20:20:46.121Z,10.43
2019-05-26T20:23:19.770Z,10.56
2019-05-26T20:25:54.520Z,10.44
2019-05-26T20:28:47.578Z,10.40
2019-05-26T20:31:21.246Z,10.33
2019-05-26T20:33:54.915Z,10.40
2019-05-26T20:36:28.671Z,10.31
2019-05-26T20:39:06.111Z,10.31
2019-05-26T20:41:47.490Z,10.42
2019-05-26T20:44:24.649Z,10.37
2019-05-26T20:47:02.226Z,10.30
2019-05-26T20:49:45.264Z,10.21
2019-05-26T20:52:13.153Z,10.21
2019-05-26T20:54:46.628Z,10.28
2019-05-26T20:57:21.426Z,10.18
2019-05-26T20:59:56.653Z,10.22
2019-05-26T21:02:29.932Z,10.18
2019-05-26T21:05:04.737Z,10.16
2019-05-26T21:07:38.931Z,10.12
2019-05-26T21:10:14.868Z,10.19
2019-05-26T21:12:49.441Z,10.05
2019-05-26T21:15:24.420Z,10.12
2019-05-26T21:17:59.268Z,10.22
2019-05-26T21:20:33.158Z,10.23
2019-05-26T21:23:08.313Z,10.17
2019-05-26T21:25:43.107Z,10.17
2019-05-26T21:28:18.510Z,10.13
2019-05-26T21:30:53.322Z,10.11
2019-05-26T21:33:28.763Z,10.03
2019-05-26T21:36:03.523Z,10.11
2019-05-26T21:38:38.296Z,10.16
2019-05-26T21:41:11.920Z,10.13
2019-05-26T21:43:47.181Z,10.11
2019-05-26T21:46:22.529Z,10.07
2019-05-26T21:48:57.253Z,10.05
2019-05-26T21:51:31.223Z,10.19
2019-05-26T21:54:05.185Z,10.25
2019-05-26T21:56:40.032Z,9.99
2019-05-26T21:59:14.915Z,10.02
2019-05-26T22:01:48.698Z,10.01
2019-05-26T22:04:23.947Z,9.98
2019-05-26T22:06:58.832Z,10.14
2019-05-26T22:09:33.224Z,10.00
2019-05-26T22:12:14.215Z,9.86
2019-05-26T22:14:48.989Z,10.01
2019-05-26T22:17:22.476Z,10.05
2019-05-26T22:19:57.927Z,10.13
2019-05-26T22:22:31.411Z,10.16
2019-05-26T22:25:25.673Z,10.13
2019-05-26T22:28:00.132Z,9.98
2019-05-26T22:30:34.624Z,9.91
2019-05-26T22:33:08.377Z,9.86
2019-05-26T22:35:43.493Z,9.92
2019-05-26T22:38:18.119Z,9.87
2019-05-26T22:40:51.732Z,9.87
2019-05-26T22:43:28.341Z,9.69
2019-05-26T22:46:03.154Z,9.88
2019-05-26T22:48:38.189Z,9.81
2019-05-26T22:51:13.053Z,9.84
2019-05-26T22:53:46.810Z,9.77
2019-05-26T22:56:21.715Z,9.87
2019-05-26T22:58:56.862Z,9.74
2019-05-26T23:01:32.257Z,9.74
2019-05-26T23:04:07.730Z,9.70
2019-05-26T23:06:41.530Z,9.72
2019-05-26T23:09:16.663Z,9.68
2019-05-26T23:11:51.480Z,9.78
2019-05-26T23:14:26.341Z,9.81
2019-05-26T23:16:59.996Z,9.63
2019-05-26T23:19:35.215Z,9.67
2019-05-26T23:22:08.881Z,9.64
2019-05-26T23:24:42.586Z,9.57
2019-05-26T23:27:17.309Z,9.68
2019-05-26T23:29:52.435Z,9.69
2019-05-26T23:32:26.065Z,9.63
2019-05-26T23:35:01.287Z,9.70
2019-05-26T23:37:34.790Z,9.78
2019-05-26T23:40:12.638Z,9.74
2019-05-26T23:42:47.675Z,9.69
2019-05-26T23:45:22.751Z,9.68
2019-05-26T23:47:56.298Z,9.70
2019-05-26T23:50:29.863Z,9.70
2019-05-26T23:53:04.985Z,9.64
2019-05-26T23:55:40.479Z,9.56
2019-05-26T23:58:15.563Z,9.70
